sensor_id;sensor_type;location;lat;lon;timestamp;P1;durP1;ratioP1;P2;durP2;ratioP2
77415;SDS011;66489;49.230;8.520;2023-02-16T04:53:01;75.20;;;25.77;;
77415;SDS011;66489;49.230;8.520;2023-02-16T04:55:27;115.45;;;26.98;;
77415;SDS011;66489;49.230;8.520;2023-02-16T04:57:54;64.53;;;25.50;;
77415;SDS011;66489;49.230;8.520;2023-02-16T05:00:21;73.03;;;25.05;;
77415;SDS011;66489;49.230;8.520;2023-02-16T05:02:48;113.40;;;25.98;;
77415;SDS011;66489;49.230;8.520;2023-02-16T05:05:14;188.10;;;29.80;;
77415;SDS011;66489;49.230;8.520;2023-02-16T05:07:41;68.88;;;24.77;;
77415;SDS011;66489;49.230;8.520;2023-02-16T05:10:07;72.68;;;25.88;;
77415;SDS011;66489;49.230;8.520;2023-02-16T05:12:34;86.85;;;25.40;;
77415;SDS011;66489;49.230;8.520;2023-02-16T05:15:19;86.32;;;24.80;;
77415;SDS011;66489;49.230;8.520;2023-02-16T05:17:46;90.90;;;24.90;;
77415;SDS011;66489;49.230;8.520;2023-02-16T05:20:12;66.80;;;23.90;;
77415;SDS011;66489;49.230;8.520;2023-02-16T05:22:39;71.70;;;25.67;;
77415;SDS011;66489;49.230;8.520;2023-02-16T05:25:06;87.30;;;26.02;;
77415;SDS011;66489;49.230;8.520;2023-02-16T05:27:32;68.72;;;24.95;;
77415;SDS011;66489;49.230;8.520;2023-02-16T05:29:59;91.47;;;26.38;;
77415;SDS011;66489;49.230;8.520;2023-02-16T05:32:26;87.90;;;27.23;;
77415;SDS011;66489;49.230;8.520;2023-02-16T05:34:52;125.45;;;28.35;;
77415;SDS011;66489;49.230;8.520;2023-02-16T05:37:19;72.55;;;25.65;;
77415;SDS011;66489;49.230;8.520;2023-02-16T05:39:45;71.15;;;25.42;;
77415;SDS011;66489;49.230;8.520;2023-02-16T05:42:12;130.20;;;27.77;;
77415;SDS011;66489;49.230;8.520;2023-02-16T05:44:39;76.60;;;26.45;;
77415;SDS011;66489;49.230;8.520;2023-02-16T05:47:05;131.07;;;29.65;;
77415;SDS011;66489;49.230;8.520;2023-02-16T05:49:32;126.22;;;28.20;;
77415;SDS011;66489;49.230;8.520;2023-02-16T05:51:58;86.43;;;27.13;;
77415;SDS011;66489;49.230;8.520;2023-02-16T05:54:25;133.68;;;29.23;;
77415;SDS011;66489;49.230;8.520;2023-02-16T05:56:53;88.30;;;25.48;;
77415;SDS011;66489;49.230;8.520;2023-02-16T05:59:19;64.53;;;25.98;;
77415;SDS011;66489;49.230;8.520;2023-02-16T06:01:46;92.07;;;26.05;;
77415;SDS011;66489;49.230;8.520;2023-02-16T06:04:17;66.03;;;26.48;;
77415;SDS011;66489;49.230;8.520;2023-02-16T06:06:43;84.68;;;25.75;;
77415;SDS011;66489;49.230;8.520;2023-02-16T06:09:10;112.90;;;27.55;;
77415;SDS011;66489;49.230;8.520;2023-02-16T06:11:36;62.70;;;25.08;;
77415;SDS011;66489;49.230;8.520;2023-02-16T06:14:07;91.60;;;26.42;;
77415;SDS011;66489;49.230;8.520;2023-02-16T06:16:36;68.10;;;24.67;;
77415;SDS011;66489;49.230;8.520;2023-02-16T06:19:04;55.38;;;25.08;;
77415;SDS011;66489;49.230;8.520;2023-02-16T06:21:31;56.88;;;23.48;;
77415;SDS011;66489;49.230;8.520;2023-02-16T06:23:58;60.15;;;24.73;;
77415;SDS011;66489;49.230;8.520;2023-02-16T06:26:25;48.25;;;23.17;;
77415;SDS011;66489;49.230;8.520;2023-02-16T06:28:51;75.80;;;23.75;;
77415;SDS011;66489;49.230;8.520;2023-02-16T06:31:18;52.85;;;24.35;;
77415;SDS011;66489;49.230;8.520;2023-02-16T06:33:45;98.68;;;30.45;;
77415;SDS011;66489;49.230;8.520;2023-02-16T06:36:13;96.68;;;24.90;;
77415;SDS011;66489;49.230;8.520;2023-02-16T06:38:40;90.68;;;25.30;;
77415;SDS011;66489;49.230;8.520;2023-02-16T06:41:07;50.83;;;23.42;;
77415;SDS011;66489;49.230;8.520;2023-02-16T06:43:34;56.38;;;23.08;;
77415;SDS011;66489;49.230;8.520;2023-02-16T06:46:00;54.88;;;23.63;;
77415;SDS011;66489;49.230;8.520;2023-02-16T06:48:27;50.38;;;23.33;;
77415;SDS011;66489;49.230;8.520;2023-02-16T06:50:53;67.13;;;29.08;;
77415;SDS011;66489;49.230;8.520;2023-02-16T06:53:20;73.25;;;35.17;;
77415;SDS011;66489;49.230;8.520;2023-02-16T06:55:48;60.08;;;25.88;;
77415;SDS011;66489;49.230;8.520;2023-02-16T06:58:15;94.20;;;26.60;;
77415;SDS011;66489;49.230;8.520;2023-02-16T07:00:42;93.10;;;27.25;;
77415;SDS011;66489;49.230;8.520;2023-02-16T07:03:09;92.68;;;26.40;;
77415;SDS011;66489;49.230;8.520;2023-02-16T07:05:35;57.50;;;26.65;;
77415;SDS011;66489;49.230;8.520;2023-02-16T07:08:03;75.18;;;24.67;;
77415;SDS011;66489;49.230;8.520;2023-02-16T07:10:29;64.78;;;25.42;;
77415;SDS011;66489;49.230;8.520;2023-02-16T07:13:14;58.00;;;25.30;;
77415;SDS011;66489;49.230;8.520;2023-02-16T07:15:45;65.28;;;27.65;;
77415;SDS011;66489;49.230;8.520;2023-02-16T07:18:12;84.78;;;25.48;;
77415;SDS011;66489;49.230;8.520;2023-02-16T07:20:38;55.90;;;23.55;;
77415;SDS011;66489;49.230;8.520;2023-02-16T07:23:05;103.40;;;27.95;;
77415;SDS011;66489;49.230;8.520;2023-02-16T07:25:31;79.88;;;26.17;;
77415;SDS011;66489;49.230;8.520;2023-02-16T07:28:01;77.38;;;35.05;;
77415;SDS011;66489;49.230;8.520;2023-02-16T07:30:27;69.20;;;36.60;;
77415;SDS011;66489;49.230;8.520;2023-02-16T07:32:54;96.55;;;38.42;;
77415;SDS011;66489;49.230;8.520;2023-02-16T07:35:21;77.45;;;35.22;;
77415;SDS011;66489;49.230;8.520;2023-02-16T07:37:48;80.95;;;34.55;;
77415;SDS011;66489;49.230;8.520;2023-02-16T07:40:14;66.80;;;36.65;;
77415;SDS011;66489;49.230;8.520;2023-02-16T07:42:41;69.40;;;27.00;;
77415;SDS011;66489;49.230;8.520;2023-02-16T07:45:08;67.07;;;31.92;;
77415;SDS011;66489;49.230;8.520;2023-02-16T07:47:34;127.15;;;53.90;;
77415;SDS011;66489;49.230;8.520;2023-02-16T07:50:01;129.55;;;38.60;;
77415;SDS011;66489;49.230;8.520;2023-02-16T07:52:27;77.30;;;33.85;;
77415;SDS011;66489;49.230;8.520;2023-02-16T07:54:56;85.28;;;28.58;;
77415;SDS011;66489;49.230;8.520;2023-02-16T07:57:26;74.28;;;31.63;;
77415;SDS011;66489;49.230;8.520;2023-02-16T07:59:53;80.45;;;32.63;;
77415;SDS011;66489;49.230;8.520;2023-02-16T08:02:21;104.63;;;40.92;;
77415;SDS011;66489;49.230;8.520;2023-02-16T08:04:48;82.80;;;38.00;;
77415;SDS011;66489;49.230;8.520;2023-02-16T08:07:15;77.47;;;33.00;;
77415;SDS011;66489;49.230;8.520;2023-02-16T08:09:42;79.28;;;35.70;;
77415;SDS011;66489;49.230;8.520;2023-02-16T08:12:09;104.78;;;53.20;;
77415;SDS011;66489;49.230;8.520;2023-02-16T08:14:36;91.03;;;47.33;;
77415;SDS011;66489;49.230;8.520;2023-02-16T08:17:03;81.70;;;38.50;;
77415;SDS011;66489;49.230;8.520;2023-02-16T08:19:31;98.90;;;38.22;;
77415;SDS011;66489;49.230;8.520;2023-02-16T08:21:58;117.80;;;49.97;;
77415;SDS011;66489;49.230;8.520;2023-02-16T08:24:25;250.27;;;94.88;;
77415;SDS011;66489;49.230;8.520;2023-02-16T08:26:52;179.45;;;73.60;;
77415;SDS011;66489;49.230;8.520;2023-02-16T08:29:19;284.58;;;110.03;;
77415;SDS011;66489;49.230;8.520;2023-02-16T08:31:46;99.10;;;42.22;;
77415;SDS011;66489;49.230;8.520;2023-02-16T08:34:14;91.10;;;41.85;;
77415;SDS011;66489;49.230;8.520;2023-02-16T08:36:43;200.27;;;91.10;;
77415;SDS011;66489;49.230;8.520;2023-02-16T08:41:40;99.75;;;47.13;;
77415;SDS011;66489;49.230;8.520;2023-02-16T08:44:08;62.25;;;26.60;;
77415;SDS011;66489;49.230;8.520;2023-02-16T08:46:35;73.28;;;30.80;;
77415;SDS011;66489;49.230;8.520;2023-02-16T08:49:05;77.88;;;36.35;;
77415;SDS011;66489;49.230;8.520;2023-02-16T08:51:34;91.43;;;47.13;;
77415;SDS011;66489;49.230;8.520;2023-02-16T08:54:02;58.38;;;26.13;;
77415;SDS011;66489;49.230;8.520;2023-02-16T08:56:31;67.00;;;33.75;;
77415;SDS011;66489;49.230;8.520;2023-02-16T08:59:00;61.03;;;31.42;;
77415;SDS011;66489;49.230;8.520;2023-02-16T09:01:27;53.15;;;27.90;;
77415;SDS011;66489;49.230;8.520;2023-02-16T09:03:54;54.92;;;26.92;;
77415;SDS011;66489;49.230;8.520;2023-02-16T09:06:24;51.25;;;24.48;;
77415;SDS011;66489;49.230;8.520;2023-02-16T09:08:51;55.80;;;26.35;;
77415;SDS011;66489;49.230;8.520;2023-02-16T09:11:22;54.00;;;26.20;;
77415;SDS011;66489;49.230;8.520;2023-02-16T09:13:49;55.60;;;25.85;;
77415;SDS011;66489;49.230;8.520;2023-02-16T09:16:16;57.15;;;26.90;;
77415;SDS011;66489;49.230;8.520;2023-02-16T09:18:45;56.53;;;27.30;;
77415;SDS011;66489;49.230;8.520;2023-02-16T09:21:16;53.35;;;27.52;;
77415;SDS011;66489;49.230;8.520;2023-02-16T09:23:45;53.63;;;25.35;;
77415;SDS011;66489;49.230;8.520;2023-02-16T09:26:13;55.15;;;26.25;;
77415;SDS011;66489;49.230;8.520;2023-02-16T09:28:44;52.45;;;26.00;;
77415;SDS011;66489;49.230;8.520;2023-02-16T09:31:21;53.28;;;27.58;;
77415;SDS011;66489;49.230;8.520;2023-02-16T09:33:53;49.75;;;25.70;;
77415;SDS011;66489;49.230;8.520;2023-02-16T09:36:21;55.38;;;27.58;;
77415;SDS011;66489;49.230;8.520;2023-02-16T09:38:48;51.25;;;25.10;;
77415;SDS011;66489;49.230;8.520;2023-02-16T09:44:34;50.13;;;26.45;;
77415;SDS011;66489;49.230;8.520;2023-02-16T09:47:03;50.38;;;26.58;;
77415;SDS011;66489;49.230;8.520;2023-02-16T09:49:39;51.55;;;26.52;;
77415;SDS011;66489;49.230;8.520;2023-02-16T09:54:38;47.10;;;25.10;;
77415;SDS011;66489;49.230;8.520;2023-02-16T10:00:08;46.97;;;25.13;;
77415;SDS011;66489;49.230;8.520;2023-02-16T10:02:48;51.38;;;26.58;;
77415;SDS011;66489;49.230;8.520;2023-02-16T10:08:08;52.22;;;26.30;;
77415;SDS011;66489;49.230;8.520;2023-02-16T10:10:41;52.70;;;27.10;;
77415;SDS011;66489;49.230;8.520;2023-02-16T10:16:08;54.80;;;28.33;;
77415;SDS011;66489;49.230;8.520;2023-02-16T10:18:39;50.60;;;27.35;;
77415;SDS011;66489;49.230;8.520;2023-02-16T10:21:08;48.08;;;26.25;;
77415;SDS011;66489;49.230;8.520;2023-02-16T10:23:43;47.60;;;26.33;;
77415;SDS011;66489;49.230;8.520;2023-02-16T10:28:44;48.75;;;26.92;;
77415;SDS011;66489;49.230;8.520;2023-02-16T10:36:31;47.58;;;27.15;;
77415;SDS011;66489;49.230;8.520;2023-02-16T10:41:49;42.67;;;24.65;;
77415;SDS011;66489;49.230;8.520;2023-02-16T10:44:22;46.08;;;26.00;;
77415;SDS011;66489;49.230;8.520;2023-02-16T10:46:55;44.45;;;24.75;;
77415;SDS011;66489;49.230;8.520;2023-02-16T10:49:25;41.05;;;24.23;;
77415;SDS011;66489;49.230;8.520;2023-02-16T10:51:52;39.78;;;23.42;;
77415;SDS011;66489;49.230;8.520;2023-02-16T10:54:24;43.53;;;24.05;;
77415;SDS011;66489;49.230;8.520;2023-02-16T10:56:59;43.30;;;23.95;;
77415;SDS011;66489;49.230;8.520;2023-02-16T10:59:43;38.00;;;22.05;;
77415;SDS011;66489;49.230;8.520;2023-02-16T11:04:53;34.60;;;22.00;;
77415;SDS011;66489;49.230;8.520;2023-02-16T11:07:23;37.73;;;22.53;;
77415;SDS011;66489;49.230;8.520;2023-02-16T11:09:51;35.42;;;22.05;;
77415;SDS011;66489;49.230;8.520;2023-02-16T11:15:02;37.47;;;21.73;;
77415;SDS011;66489;49.230;8.520;2023-02-16T11:17:56;35.65;;;21.58;;
77415;SDS011;66489;49.230;8.520;2023-02-16T11:28:30;33.85;;;20.33;;
77415;SDS011;66489;49.230;8.520;2023-02-16T11:30:59;41.90;;;24.05;;
77415;SDS011;66489;49.230;8.520;2023-02-16T11:33:27;46.85;;;25.25;;
77415;SDS011;66489;49.230;8.520;2023-02-16T11:35:55;27.50;;;17.23;;
77415;SDS011;66489;49.230;8.520;2023-02-16T11:38:32;27.80;;;17.67;;
77415;SDS011;66489;49.230;8.520;2023-02-16T11:41:03;34.00;;;21.67;;
77415;SDS011;66489;49.230;8.520;2023-02-16T11:43:34;30.80;;;17.30;;
77415;SDS011;66489;49.230;8.520;2023-02-16T11:46:03;25.42;;;15.25;;
77415;SDS011;66489;49.230;8.520;2023-02-16T11:48:33;27.05;;;16.05;;
77415;SDS011;66489;49.230;8.520;2023-02-16T11:51:07;21.30;;;14.20;;
77415;SDS011;66489;49.230;8.520;2023-02-16T11:53:38;22.35;;;14.20;;
77415;SDS011;66489;49.230;8.520;2023-02-16T11:56:24;21.02;;;13.65;;
77415;SDS011;66489;49.230;8.520;2023-02-16T11:59:13;19.92;;;13.20;;
77415;SDS011;66489;49.230;8.520;2023-02-16T12:02:01;22.17;;;13.60;;
77415;SDS011;66489;49.230;8.520;2023-02-16T12:07:49;19.83;;;11.80;;
77415;SDS011;66489;49.230;8.520;2023-02-16T12:10:27;17.42;;;11.25;;
77415;SDS011;66489;49.230;8.520;2023-02-16T12:21:22;18.27;;;10.82;;
77415;SDS011;66489;49.230;8.520;2023-02-16T12:24:17;17.05;;;10.13;;
77415;SDS011;66489;49.230;8.520;2023-02-16T12:35:55;18.08;;;11.55;;
77415;SDS011;66489;49.230;8.520;2023-02-16T12:41:27;16.80;;;11.10;;
77415;SDS011;66489;49.230;8.520;2023-02-16T12:44:04;18.27;;;11.90;;
77415;SDS011;66489;49.230;8.520;2023-02-16T12:46:46;17.70;;;11.65;;
77415;SDS011;66489;49.230;8.520;2023-02-16T12:49:39;17.20;;;10.93;;
77415;SDS011;66489;49.230;8.520;2023-02-16T12:58:13;19.83;;;12.13;;
77415;SDS011;66489;49.230;8.520;2023-02-16T13:00:53;17.00;;;10.88;;
77415;SDS011;66489;49.230;8.520;2023-02-16T13:03:49;16.15;;;10.82;;
77415;SDS011;66489;49.230;8.520;2023-02-16T13:07:09;17.25;;;10.85;;
77415;SDS011;66489;49.230;8.520;2023-02-16T13:15:05;13.68;;;9.43;;
77415;SDS011;66489;49.230;8.520;2023-02-16T13:17:47;14.10;;;9.25;;
77415;SDS011;66489;49.230;8.520;2023-02-16T13:20:17;24.70;;;10.68;;
77415;SDS011;66489;49.230;8.520;2023-02-16T13:46:36;15.40;;;9.23;;
77415;SDS011;66489;49.230;8.520;2023-02-16T13:49:05;15.63;;;8.95;;
77415;SDS011;66489;49.230;8.520;2023-02-16T13:51:40;14.20;;;8.63;;
77415;SDS011;66489;49.230;8.520;2023-02-16T13:54:20;12.95;;;8.32;;
77415;SDS011;66489;49.230;8.520;2023-02-16T13:56:49;13.38;;;8.57;;
77415;SDS011;66489;49.230;8.520;2023-02-16T14:01:44;13.23;;;7.97;;
77415;SDS011;66489;49.230;8.520;2023-02-16T14:04:58;13.10;;;8.93;;
77415;SDS011;66489;49.230;8.520;2023-02-16T14:14:38;12.05;;;7.20;;
77415;SDS011;66489;49.230;8.520;2023-02-16T14:19:48;13.18;;;7.18;;
77415;SDS011;66489;49.230;8.520;2023-02-16T14:22:32;12.40;;;7.18;;
77415;SDS011;66489;49.230;8.520;2023-02-16T14:25:01;14.50;;;7.20;;
77415;SDS011;66489;49.230;8.520;2023-02-16T14:30:47;12.35;;;6.90;;
77415;SDS011;66489;49.230;8.520;2023-02-16T14:33:21;14.38;;;7.30;;
77415;SDS011;66489;49.230;8.520;2023-02-16T14:36:18;12.38;;;7.22;;
77415;SDS011;66489;49.230;8.520;2023-02-16T14:38:49;18.02;;;8.73;;
77415;SDS011;66489;49.230;8.520;2023-02-16T14:58:03;11.00;;;6.13;;
77415;SDS011;66489;49.230;8.520;2023-02-16T15:00:55;13.15;;;6.38;;
77415;SDS011;66489;49.230;8.520;2023-02-16T15:03:24;12.52;;;6.50;;
77415;SDS011;66489;49.230;8.520;2023-02-16T15:05:54;9.35;;;5.78;;
77415;SDS011;66489;49.230;8.520;2023-02-16T15:08:29;10.90;;;6.03;;
77415;SDS011;66489;49.230;8.520;2023-02-16T15:11:11;11.20;;;6.40;;
77415;SDS011;66489;49.230;8.520;2023-02-16T15:13:40;11.15;;;6.63;;
77415;SDS011;66489;49.230;8.520;2023-02-16T15:16:08;10.32;;;5.93;;
77415;SDS011;66489;49.230;8.520;2023-02-16T15:18:39;11.38;;;6.90;;
77415;SDS011;66489;49.230;8.520;2023-02-16T15:21:20;13.52;;;6.85;;
77415;SDS011;66489;49.230;8.520;2023-02-16T15:23:50;12.30;;;6.93;;
77415;SDS011;66489;49.230;8.520;2023-02-16T15:26:25;12.38;;;6.90;;
77415;SDS011;66489;49.230;8.520;2023-02-16T15:28:55;11.88;;;6.45;;
77415;SDS011;66489;49.230;8.520;2023-02-16T15:34:02;12.23;;;6.78;;
77415;SDS011;66489;49.230;8.520;2023-02-16T15:36:42;13.13;;;7.53;;
77415;SDS011;66489;49.230;8.520;2023-02-16T15:39:14;12.50;;;6.60;;
77415;SDS011;66489;49.230;8.520;2023-02-16T15:41:43;13.68;;;7.00;;
77415;SDS011;66489;49.230;8.520;2023-02-16T15:44:33;12.95;;;7.10;;
77415;SDS011;66489;49.230;8.520;2023-02-16T15:47:07;13.90;;;6.57;;
77415;SDS011;66489;49.230;8.520;2023-02-16T15:49:34;11.85;;;6.32;;
77415;SDS011;66489;49.230;8.520;2023-02-16T15:52:14;14.82;;;7.07;;
77415;SDS011;66489;49.230;8.520;2023-02-16T15:55:06;12.70;;;7.00;;
77415;SDS011;66489;49.230;8.520;2023-02-16T15:57:35;12.10;;;6.35;;
77415;SDS011;66489;49.230;8.520;2023-02-16T16:00:07;11.95;;;6.22;;
77415;SDS011;66489;49.230;8.520;2023-02-16T16:02:41;12.02;;;6.65;;
77415;SDS011;66489;49.230;8.520;2023-02-16T16:05:23;11.70;;;6.57;;
77415;SDS011;66489;49.230;8.520;2023-02-16T16:07:51;10.07;;;6.40;;
77415;SDS011;66489;49.230;8.520;2023-02-16T16:10:21;10.82;;;6.13;;
77415;SDS011;66489;49.230;8.520;2023-02-16T16:12:51;13.13;;;7.50;;
77415;SDS011;66489;49.230;8.520;2023-02-16T16:15:23;13.90;;;7.93;;
77415;SDS011;66489;49.230;8.520;2023-02-16T16:17:52;16.10;;;8.95;;
77415;SDS011;66489;49.230;8.520;2023-02-16T16:20:34;14.50;;;8.45;;
77415;SDS011;66489;49.230;8.520;2023-02-16T16:23:23;15.43;;;9.60;;
77415;SDS011;66489;49.230;8.520;2023-02-16T16:25:51;18.08;;;9.52;;
77415;SDS011;66489;49.230;8.520;2023-02-16T16:33:53;17.38;;;9.52;;
77415;SDS011;66489;49.230;8.520;2023-02-16T16:36:27;16.63;;;9.88;;
77415;SDS011;66489;49.230;8.520;2023-02-16T16:39:07;21.33;;;10.85;;
77415;SDS011;66489;49.230;8.520;2023-02-16T16:44:01;15.80;;;9.10;;
77415;SDS011;66489;49.230;8.520;2023-02-16T16:46:28;15.90;;;10.32;;
77415;SDS011;66489;49.230;8.520;2023-02-16T16:48:56;17.85;;;9.57;;
77415;SDS011;66489;49.230;8.520;2023-02-16T16:53:53;17.50;;;10.05;;
77415;SDS011;66489;49.230;8.520;2023-02-16T16:56:22;16.30;;;8.75;;
77415;SDS011;66489;49.230;8.520;2023-02-16T16:58:50;14.52;;;8.65;;
77415;SDS011;66489;49.230;8.520;2023-02-16T17:01:17;18.15;;;9.20;;
77415;SDS011;66489;49.230;8.520;2023-02-16T17:04:04;16.45;;;10.38;;
77415;SDS011;66489;49.230;8.520;2023-02-16T17:06:31;14.98;;;9.50;;
77415;SDS011;66489;49.230;8.520;2023-02-16T17:08:58;15.93;;;10.27;;
77415;SDS011;66489;49.230;8.520;2023-02-16T17:11:25;13.55;;;8.98;;
77415;SDS011;66489;49.230;8.520;2023-02-16T17:13:54;17.70;;;9.57;;
77415;SDS011;66489;49.230;8.520;2023-02-16T17:16:25;17.00;;;10.30;;
77415;SDS011;66489;49.230;8.520;2023-02-16T17:18:54;16.52;;;10.45;;
77415;SDS011;66489;49.230;8.520;2023-02-16T17:21:20;16.42;;;10.75;;
77415;SDS011;66489;49.230;8.520;2023-02-16T17:23:47;16.05;;;10.70;;
77415;SDS011;66489;49.230;8.520;2023-02-16T17:26:19;15.48;;;9.82;;
77415;SDS011;66489;49.230;8.520;2023-02-16T17:28:46;17.52;;;10.88;;
77415;SDS011;66489;49.230;8.520;2023-02-16T17:31:13;18.02;;;10.55;;
77415;SDS011;66489;49.230;8.520;2023-02-16T17:33:41;19.15;;;10.93;;
77415;SDS011;66489;49.230;8.520;2023-02-16T17:36:10;18.10;;;10.68;;
77415;SDS011;66489;49.230;8.520;2023-02-16T17:38:38;18.67;;;12.35;;
77415;SDS011;66489;49.230;8.520;2023-02-16T17:41:05;16.73;;;12.00;;
77415;SDS011;66489;49.230;8.520;2023-02-16T17:43:31;19.88;;;13.25;;
77415;SDS011;66489;49.230;8.520;2023-02-16T17:45:58;21.23;;;14.32;;
77415;SDS011;66489;49.230;8.520;2023-02-16T17:48:30;23.50;;;14.45;;
77415;SDS011;66489;49.230;8.520;2023-02-16T17:50:56;22.02;;;14.20;;
77415;SDS011;66489;49.230;8.520;2023-02-16T17:53:23;21.23;;;14.20;;
77415;SDS011;66489;49.230;8.520;2023-02-16T17:55:51;22.33;;;14.10;;
77415;SDS011;66489;49.230;8.520;2023-02-16T17:58:20;20.23;;;13.73;;
77415;SDS011;66489;49.230;8.520;2023-02-16T18:00:47;21.52;;;14.57;;
77415;SDS011;66489;49.230;8.520;2023-02-16T18:03:14;20.67;;;13.93;;
77415;SDS011;66489;49.230;8.520;2023-02-16T18:05:41;21.95;;;14.68;;
77415;SDS011;66489;49.230;8.520;2023-02-16T18:08:09;22.02;;;14.40;;
77415;SDS011;66489;49.230;8.520;2023-02-16T18:10:37;30.27;;;16.20;;
77415;SDS011;66489;49.230;8.520;2023-02-16T18:13:06;31.65;;;17.88;;
77415;SDS011;66489;49.230;8.520;2023-02-16T18:15:34;28.40;;;17.35;;
77415;SDS011;66489;49.230;8.520;2023-02-16T18:18:04;19.85;;;13.57;;
77415;SDS011;66489;49.230;8.520;2023-02-16T18:20:31;25.30;;;15.80;;
77415;SDS011;66489;49.230;8.520;2023-02-16T18:22:58;24.65;;;15.77;;
77415;SDS011;66489;49.230;8.520;2023-02-16T18:25:25;29.23;;;19.23;;
77415;SDS011;66489;49.230;8.520;2023-02-16T18:27:51;31.02;;;19.35;;
77415;SDS011;66489;49.230;8.520;2023-02-16T18:30:18;28.40;;;19.13;;
77415;SDS011;66489;49.230;8.520;2023-02-16T18:32:45;36.35;;;22.15;;
77415;SDS011;66489;49.230;8.520;2023-02-16T18:35:12;46.25;;;24.75;;
77415;SDS011;66489;49.230;8.520;2023-02-16T18:37:39;57.28;;;27.10;;
77415;SDS011;66489;49.230;8.520;2023-02-16T18:40:07;47.90;;;24.13;;
77415;SDS011;66489;49.230;8.520;2023-02-16T18:42:35;50.45;;;24.52;;
77415;SDS011;66489;49.230;8.520;2023-02-16T18:45:02;39.03;;;21.88;;
77415;SDS011;66489;49.230;8.520;2023-02-16T18:47:30;36.80;;;19.77;;
77415;SDS011;66489;49.230;8.520;2023-02-16T18:49:56;33.92;;;22.02;;
77415;SDS011;66489;49.230;8.520;2023-02-16T18:52:23;31.45;;;20.55;;
77415;SDS011;66489;49.230;8.520;2023-02-16T18:54:50;32.83;;;21.60;;
77415;SDS011;66489;49.230;8.520;2023-02-16T18:57:16;32.83;;;20.92;;
77415;SDS011;66489;49.230;8.520;2023-02-16T18:59:43;27.33;;;19.33;;
77415;SDS011;66489;49.230;8.520;2023-02-16T19:02:11;27.90;;;19.25;;
77415;SDS011;66489;49.230;8.520;2023-02-16T19:04:37;28.95;;;17.67;;
77415;SDS011;66489;49.230;8.520;2023-02-16T19:07:04;24.77;;;17.17;;
77415;SDS011;66489;49.230;8.520;2023-02-16T19:09:31;26.70;;;16.35;;
77415;SDS011;66489;49.230;8.520;2023-02-16T19:11:58;24.20;;;15.75;;
77415;SDS011;66489;49.230;8.520;2023-02-16T19:14:24;27.73;;;17.70;;
77415;SDS011;66489;49.230;8.520;2023-02-16T19:16:51;25.30;;;17.02;;
77415;SDS011;66489;49.230;8.520;2023-02-16T19:19:18;29.17;;;19.48;;
77415;SDS011;66489;49.230;8.520;2023-02-16T19:21:44;28.42;;;19.02;;
77415;SDS011;66489;49.230;8.520;2023-02-16T19:24:11;26.48;;;16.60;;
77415;SDS011;66489;49.230;8.520;2023-02-16T19:26:38;30.58;;;17.83;;
77415;SDS011;66489;49.230;8.520;2023-02-16T19:29:05;27.40;;;17.27;;
77415;SDS011;66489;49.230;8.520;2023-02-16T19:31:32;26.65;;;16.52;;
77415;SDS011;66489;49.230;8.520;2023-02-16T19:34:00;26.45;;;15.82;;
77415;SDS011;66489;49.230;8.520;2023-02-16T19:36:28;22.15;;;13.75;;
77415;SDS011;66489;49.230;8.520;2023-02-16T19:38:56;23.30;;;13.82;;
77415;SDS011;66489;49.230;8.520;2023-02-16T19:41:24;24.98;;;14.40;;
77415;SDS011;66489;49.230;8.520;2023-02-16T19:43:56;29.08;;;16.45;;
77415;SDS011;66489;49.230;8.520;2023-02-16T19:46:23;27.23;;;15.48;;
77415;SDS011;66489;49.230;8.520;2023-02-16T19:48:50;28.40;;;15.13;;
77415;SDS011;66489;49.230;8.520;2023-02-16T19:51:16;24.70;;;15.32;;
77415;SDS011;66489;49.230;8.520;2023-02-16T19:53:43;23.92;;;15.38;;
77415;SDS011;66489;49.230;8.520;2023-02-16T19:56:12;24.00;;;14.65;;
77415;SDS011;66489;49.230;8.520;2023-02-16T19:58:42;25.25;;;15.70;;
77415;SDS011;66489;49.230;8.520;2023-02-16T20:01:10;21.98;;;14.95;;
77415;SDS011;66489;49.230;8.520;2023-02-16T20:06:12;29.33;;;15.85;;
77415;SDS011;66489;49.230;8.520;2023-02-16T20:08:44;33.75;;;18.77;;
77415;SDS011;66489;49.230;8.520;2023-02-16T20:11:11;47.95;;;22.00;;
77415;SDS011;66489;49.230;8.520;2023-02-16T20:13:38;35.65;;;20.17;;
77415;SDS011;66489;49.230;8.520;2023-02-16T20:16:06;30.33;;;18.75;;
77415;SDS011;66489;49.230;8.520;2023-02-16T20:18:34;33.85;;;19.17;;
77415;SDS011;66489;49.230;8.520;2023-02-16T20:21:02;27.27;;;17.00;;
77415;SDS011;66489;49.230;8.520;2023-02-16T20:23:31;27.70;;;17.20;;
77415;SDS011;66489;49.230;8.520;2023-02-16T20:25:58;25.75;;;16.60;;
77415;SDS011;66489;49.230;8.520;2023-02-16T20:28:24;26.60;;;16.20;;
77415;SDS011;66489;49.230;8.520;2023-02-16T20:30:51;28.88;;;18.02;;
77415;SDS011;66489;49.230;8.520;2023-02-16T20:33:18;27.73;;;17.40;;
77415;SDS011;66489;49.230;8.520;2023-02-16T20:35:45;27.15;;;17.13;;
77415;SDS011;66489;49.230;8.520;2023-02-16T20:38:12;28.67;;;17.75;;
77415;SDS011;66489;49.230;8.520;2023-02-16T20:40:40;27.13;;;17.13;;
77415;SDS011;66489;49.230;8.520;2023-02-16T20:43:07;27.40;;;16.88;;
77415;SDS011;66489;49.230;8.520;2023-02-16T20:45:33;25.25;;;16.42;;
77415;SDS011;66489;49.230;8.520;2023-02-16T20:48:02;27.92;;;17.63;;
77415;SDS011;66489;49.230;8.520;2023-02-16T20:50:29;25.58;;;17.08;;
77415;SDS011;66489;49.230;8.520;2023-02-16T20:52:56;29.17;;;18.17;;
77415;SDS011;66489;49.230;8.520;2023-02-16T20:55:22;26.80;;;16.70;;
77415;SDS011;66489;49.230;8.520;2023-02-16T20:57:49;24.73;;;15.48;;
77415;SDS011;66489;49.230;8.520;2023-02-16T21:00:16;26.42;;;16.92;;
77415;SDS011;66489;49.230;8.520;2023-02-16T21:02:46;24.35;;;14.80;;
77415;SDS011;66489;49.230;8.520;2023-02-16T21:05:14;23.10;;;14.43;;
77415;SDS011;66489;49.230;8.520;2023-02-16T21:07:41;21.45;;;13.13;;
77415;SDS011;66489;49.230;8.520;2023-02-16T21:10:08;21.42;;;13.02;;
77415;SDS011;66489;49.230;8.520;2023-02-16T21:12:40;19.95;;;11.48;;
77415;SDS011;66489;49.230;8.520;2023-02-16T21:15:07;17.67;;;11.98;;
77415;SDS011;66489;49.230;8.520;2023-02-16T21:17:35;19.30;;;11.68;;
77415;SDS011;66489;49.230;8.520;2023-02-16T21:20:03;19.35;;;11.10;;
77415;SDS011;66489;49.230;8.520;2023-02-16T21:22:31;21.33;;;10.85;;
77415;SDS011;66489;49.230;8.520;2023-02-16T21:24:57;17.65;;;10.88;;
77415;SDS011;66489;49.230;8.520;2023-02-16T21:27:24;22.10;;;11.45;;
77415;SDS011;66489;49.230;8.520;2023-02-16T21:29:51;16.92;;;10.13;;
77415;SDS011;66489;49.230;8.520;2023-02-16T21:32:17;18.77;;;10.45;;
77415;SDS011;66489;49.230;8.520;2023-02-16T21:34:44;19.17;;;10.07;;
77415;SDS011;66489;49.230;8.520;2023-02-16T21:37:10;18.38;;;10.02;;
77415;SDS011;66489;49.230;8.520;2023-02-16T21:39:37;16.65;;;9.52;;
77415;SDS011;66489;49.230;8.520;2023-02-16T21:42:22;16.58;;;10.18;;
77415;SDS011;66489;49.230;8.520;2023-02-16T21:44:49;15.43;;;9.50;;
77415;SDS011;66489;49.230;8.520;2023-02-16T21:47:35;13.43;;;8.73;;
77415;SDS011;66489;49.230;8.520;2023-02-16T21:50:20;14.63;;;9.18;;
77415;SDS011;66489;49.230;8.520;2023-02-16T21:52:47;17.38;;;10.35;;
77415;SDS011;66489;49.230;8.520;2023-02-16T21:55:13;17.75;;;9.40;;
77415;SDS011;66489;49.230;8.520;2023-02-16T21:57:58;16.23;;;9.45;;
